LIPA

Aviano Air Base Airport

Aviano, Italy
TAF LIPA 182000Z 1821/1906 06005KT 9999 FEW015 BKN060
Issued Valid From Valid To
Jan-18 @ 20:00 UTC
(6 hours ago)
Jan-18 @ 21:00 UTC
(5 hours ago)
Jan-19 @ 06:00 UTC
(in 4 hours)
Jan-18 @ 21:00 to Jan-19 @ 06:00
TAF LIPA 182000Z 1821/1906 06005KT 9999 FEW015 BKN060
Wind Visibility Clouds
60° at 5 knots 10,000+ meters
  • Few at 1,500' AGL
  • Broken at 6,000' AGL
TAF LIPA 182000Z 1821/1906 06005KT 9999 FEW015 BKN060
Issued Jan-18 @ 20:00 UTC
(6 hours ago)
Valid From Jan-18 @ 21:00 UTC
(5 hours ago)
Valid To Jan-19 @ 06:00 UTC
(in 4 hours)
Jan-18 @ 21:00 - Jan-19 @ 06:00
Wind Visibility
60° at 5 knots 10,000+ meters
Clouds
  • Few at 1,500' AGL
  • Broken at 6,000' AGL